createdAt,value
2022-09-24T00:01:00.661Z,101171.00
2022-09-24T00:03:31.161Z,101181.66
2022-09-24T00:06:04.865Z,101182.53
2022-09-24T00:08:34.991Z,101177.22
2022-09-24T00:11:12.215Z,101176.41
2022-09-24T00:13:42.905Z,101166.63
2022-09-24T00:16:14.907Z,101170.16
2022-09-24T00:18:45.412Z,101175.47
2022-09-24T00:21:17.572Z,101171.88
2022-09-24T00:23:47.971Z,101167.47
2022-09-24T00:26:33.299Z,101170.13
2022-09-24T00:29:03.254Z,101172.72
2022-09-24T00:31:33.183Z,101175.31
2022-09-24T00:34:02.984Z,101172.69
2022-09-24T00:36:32.757Z,101172.69
2022-09-24T00:39:03.218Z,101170.03
2022-09-24T00:41:37.929Z,101166.53
2022-09-24T00:44:54.708Z,101171.94
2022-09-24T00:47:37.342Z,101169.22
2022-09-24T00:50:27.060Z,101174.56
2022-09-24T00:53:01.033Z,101169.19
2022-09-24T00:55:31.704Z,101166.53
2022-09-24T00:58:08.625Z,101162.16
2022-09-24T01:00:42.404Z,101163.00
2022-09-24T01:03:15.910Z,101167.41
2022-09-24T01:05:45.947Z,101162.06
2022-09-24T01:08:16.445Z,101165.59
2022-09-24T01:11:06.633Z,101162.06
2022-09-24T01:14:02.343Z,101159.38
2022-09-24T01:16:41.525Z,101162.84
2022-09-24T01:19:25.466Z,101164.66
2022-09-24T01:21:59.312Z,101154.03
2022-09-24T01:24:49.133Z,101153.16
2022-09-24T01:27:23.645Z,101154.94
2022-09-24T01:30:06.328Z,101151.47
2022-09-24T01:32:40.041Z,101155.88
2022-09-24T01:35:16.321Z,101147.03
2022-09-24T01:37:52.142Z,101151.47
2022-09-24T01:40:25.509Z,101152.41
2022-09-24T01:42:56.694Z,101152.41
2022-09-24T01:45:32.187Z,101155.06
2022-09-24T01:48:03.629Z,101148.91
2022-09-24T01:50:38.185Z,101145.41
2022-09-24T01:53:11.982Z,101138.31
2022-09-24T01:55:48.286Z,101137.44
2022-09-24T01:58:24.450Z,101133.00
2022-09-24T02:01:02.863Z,101129.41
2022-09-24T02:03:37.469Z,101130.28
2022-09-24T02:06:13.525Z,101130.28
2022-09-24T02:08:46.494Z,101130.25
2022-09-24T02:11:20.229Z,101130.25
2022-09-24T02:13:53.950Z,101124.91
2022-09-24T02:16:30.658Z,101127.56
2022-09-24T02:19:04.234Z,101131.94
2022-09-24T02:21:38.778Z,101122.25
2022-09-24T02:24:13.617Z,101124.03
2022-09-24T02:26:43.621Z,101119.56
2022-09-24T02:29:13.333Z,101120.44
2022-09-24T02:31:49.651Z,101120.44
2022-09-24T02:34:21.476Z,101119.56
2022-09-24T02:36:52.154Z,101124.88
2022-09-24T02:39:22.362Z,101116.88
2022-09-24T02:41:54.682Z,101116.78
2022-09-24T02:44:24.615Z,101108.78
2022-09-24T02:46:56.988Z,101115.81
2022-09-24T02:49:26.737Z,101113.16
2022-09-24T02:51:57.269Z,101107.84
2022-09-24T02:54:27.945Z,101108.78
2022-09-24T02:56:57.995Z,101102.56
2022-09-24T02:59:27.710Z,101113.16
2022-09-24T03:02:00.132Z,101111.34
2022-09-24T03:04:30.902Z,101107.81
2022-09-24T03:07:00.638Z,101114.00
2022-09-24T03:09:30.405Z,101116.63
2022-09-24T03:12:01.090Z,101114.00
2022-09-24T03:14:31.210Z,101116.63
2022-09-24T03:17:03.590Z,101115.66
2022-09-24T03:19:33.284Z,101118.31
2022-09-24T03:22:03.010Z,101113.94
2022-09-24T03:24:32.722Z,101113.91
2022-09-24T03:27:02.456Z,101124.53
2022-09-24T03:29:44.565Z,101125.41
2022-09-24T03:32:16.853Z,101115.72
2022-09-24T03:34:46.557Z,101113.09
2022-09-24T03:37:16.361Z,101120.22
2022-09-24T03:39:46.078Z,101121.97
2022-09-24T03:42:15.783Z,101128.22
2022-09-24T03:44:45.533Z,101119.38
2022-09-24T03:47:17.839Z,101123.84
2022-09-24T03:49:47.542Z,101116.88
2022-09-24T03:52:17.287Z,101119.47
2022-09-24T03:54:46.991Z,101123.00
2022-09-24T03:57:16.898Z,101121.19
2022-09-24T03:59:47.485Z,101124.69
2022-09-24T04:02:20.294Z,101122.88
2022-09-24T04:04:50.662Z,101124.63
2022-09-24T04:07:20.391Z,101131.72
2022-09-24T04:09:50.077Z,101127.34
2022-09-24T04:12:20.368Z,101120.31
2022-09-24T04:14:50.073Z,101128.25
2022-09-24T04:17:22.409Z,101125.56
2022-09-24T04:19:54.005Z,101116.66
2022-09-24T04:22:23.727Z,101121.94
2022-09-24T04:24:54.077Z,101120.16
2022-09-24T04:27:24.381Z,101121.06
2022-09-24T04:29:54.371Z,101121.94
2022-09-24T04:32:26.726Z,101121.91
2022-09-24T04:34:56.395Z,101121.88
2022-09-24T04:37:26.339Z,101126.25
2022-09-24T04:39:56.073Z,101128.88
2022-09-24T04:42:25.748Z,101127.03
2022-09-24T04:44:56.354Z,101123.47
2022-09-24T04:47:28.782Z,101126.06
2022-09-24T04:50:02.187Z,101125.97
2022-09-24T04:52:33.352Z,101131.25
2022-09-24T04:55:03.587Z,101127.69
2022-09-24T04:57:36.437Z,101121.44
2022-09-24T05:00:07.766Z,101132.88
2022-09-24T05:02:40.187Z,101130.22
2022-09-24T05:05:11.129Z,101130.22
2022-09-24T05:07:41.273Z,101132.91
2022-09-24T05:10:11.701Z,101135.56
2022-09-24T05:12:43.310Z,101137.28
2022-09-24T05:15:13.553Z,101135.47
2022-09-24T05:17:45.873Z,101136.34
2022-09-24T05:20:17.061Z,101136.34
2022-09-24T05:22:47.423Z,101138.13
2022-09-24T05:25:19.200Z,101143.38
2022-09-24T05:27:46.706Z,101145.19
2022-09-24T05:30:17.153Z,101141.59
2022-09-24T05:32:49.678Z,101141.56
2022-09-24T05:35:19.676Z,101146.00
2022-09-24T05:37:49.819Z,101142.53
2022-09-24T05:40:32.282Z,101146.91
2022-09-24T05:43:06.063Z,101146.00
2022-09-24T05:45:36.013Z,101144.25
2022-09-24T05:48:08.556Z,101146.06
2022-09-24T05:50:38.258Z,101157.53
2022-09-24T05:53:09.480Z,101153.13
2022-09-24T05:55:39.213Z,101160.19
2022-09-24T05:58:10.765Z,101150.47
2022-09-24T06:00:40.815Z,101157.50
2022-09-24T06:03:15.527Z,101157.50
2022-09-24T06:05:48.961Z,101161.06
2022-09-24T06:08:19.691Z,101164.59
2022-09-24T06:10:50.874Z,101161.94
2022-09-24T06:13:22.705Z,101156.66
2022-09-24T06:15:52.490Z,101158.47
2022-09-24T06:18:24.825Z,101161.97
2022-09-24T06:20:54.977Z,101164.59
2022-09-24T06:23:24.725Z,101165.50
2022-09-24T06:25:54.541Z,101166.38
2022-09-24T06:28:25.459Z,101164.56
2022-09-24T06:30:55.614Z,101169.84
2022-09-24T06:33:28.052Z,101168.91
2022-09-24T06:35:57.758Z,101176.88
2022-09-24T06:38:27.462Z,101177.75
2022-09-24T06:41:03.699Z,101182.16
2022-09-24T06:43:34.040Z,101183.00
2022-09-24T06:46:05.199Z,101190.03
2022-09-24T06:48:38.341Z,101196.28
2022-09-24T06:51:09.045Z,101187.47
2022-09-24T06:53:39.014Z,101196.31
2022-09-24T06:56:10.258Z,101189.22
2022-09-24T06:58:39.980Z,101194.56
2022-09-24T07:01:09.716Z,101200.78
2022-09-24T07:03:42.033Z,101192.03
2022-09-24T07:06:11.804Z,101192.91
2022-09-24T07:08:41.480Z,101199.09
2022-09-24T07:11:11.249Z,101193.84
2022-09-24T07:13:40.912Z,101207.13
2022-09-24T07:16:10.770Z,101203.66
2022-09-24T07:18:43.157Z,101208.91
2022-09-24T07:21:12.856Z,101200.13
2022-09-24T07:23:42.690Z,101209.00
2022-09-24T07:26:12.486Z,101203.72
2022-09-24T07:28:42.362Z,101208.13
2022-09-24T07:31:12.122Z,101211.72
2022-09-24T07:33:44.787Z,101208.19
2022-09-24T07:36:14.473Z,101214.34
2022-09-24T07:38:44.211Z,101216.13
2022-09-24T07:41:13.933Z,101214.34
2022-09-24T07:43:44.298Z,101225.78
2022-09-24T07:46:14.332Z,101231.97
2022-09-24T07:48:48.183Z,101224.84
2022-09-24T07:51:18.075Z,101223.13
2022-09-24T07:53:48.701Z,101232.84
2022-09-24T07:56:21.041Z,101230.25
2022-09-24T07:58:52.373Z,101235.56
2022-09-24T08:01:22.529Z,101240.91
2022-09-24T08:03:55.393Z,101233.84
2022-09-24T08:06:25.448Z,101236.50
2022-09-24T08:08:56.674Z,101230.31
2022-09-24T08:11:26.445Z,101230.38
2022-09-24T08:13:56.185Z,101237.47
2022-09-24T08:16:26.946Z,101234.88
2022-09-24T08:19:01.193Z,101245.50
2022-09-24T08:21:30.929Z,101242.88
2022-09-24T08:24:00.626Z,101241.13
2022-09-24T08:26:30.352Z,101246.41
2022-09-24T08:29:00.223Z,101246.47
2022-09-24T08:31:30.730Z,101245.66
2022-09-24T08:34:03.380Z,101243.09
2022-09-24T08:36:33.096Z,101241.53
2022-09-24T08:39:02.826Z,101250.66
2022-09-24T08:41:53.878Z,101264.25
2022-09-24T08:44:41.259Z,101273.16
2022-09-24T08:47:28.974Z,101272.22
2022-09-24T08:50:08.261Z,101269.47
2022-09-24T08:52:56.525Z,101272.88
2022-09-24T08:55:34.222Z,101284.22
2022-09-24T08:58:14.668Z,101274.38
2022-09-24T09:00:50.834Z,101275.22
2022-09-24T09:03:32.997Z,101276.03
2022-09-24T09:06:08.628Z,101271.72
2022-09-24T09:09:05.752Z,101271.84
2022-09-24T09:11:38.629Z,101267.56
2022-09-24T09:14:15.275Z,101275.69
2022-09-24T09:16:51.578Z,101270.41
2022-09-24T09:19:26.767Z,101275.66
2022-09-24T09:22:04.158Z,101275.66
2022-09-24T09:24:44.588Z,101274.78
2022-09-24T09:27:17.091Z,101284.44
2022-09-24T09:29:48.927Z,101291.47
2022-09-24T09:32:33.946Z,101285.16
2022-09-24T09:35:14.993Z,101292.09
2022-09-24T09:37:57.189Z,101296.38
2022-09-24T09:40:35.963Z,101298.03
2022-09-24T09:43:11.510Z,101300.53
2022-09-24T09:45:49.429Z,101294.22
2022-09-24T09:48:21.558Z,101291.47
2022-09-24T09:50:53.414Z,101300.16
2022-09-24T09:53:27.616Z,101297.41
2022-09-24T09:56:00.244Z,101290.25
2022-09-24T09:58:32.052Z,101298.19
2022-09-24T10:01:10.561Z,101297.25
2022-09-24T10:03:50.927Z,101304.28
2022-09-24T10:06:27.851Z,101293.69
2022-09-24T10:09:10.744Z,101301.72
2022-09-24T10:11:40.540Z,101307.03
2022-09-24T10:14:14.998Z,101301.72
2022-09-24T10:16:47.508Z,101302.63
2022-09-24T10:19:23.555Z,101307.09
2022-09-24T10:21:54.732Z,101303.56
2022-09-24T10:24:29.345Z,101304.56
2022-09-24T10:27:02.226Z,101300.06
2022-09-24T10:29:48.760Z,101304.53
2022-09-24T10:32:22.010Z,101299.25
2022-09-24T10:34:59.282Z,101302.84
2022-09-24T10:37:29.840Z,101307.31
2022-09-24T10:40:15.528Z,101303.88
2022-09-24T10:42:45.397Z,101309.19
2022-09-24T10:45:18.540Z,101311.06
2022-09-24T10:47:56.442Z,101306.69
2022-09-24T10:50:32.511Z,101305.00
2022-09-24T10:53:06.670Z,101312.16
2022-09-24T10:55:49.072Z,101314.03
2022-09-24T10:58:38.936Z,101313.22
2022-09-24T11:01:19.681Z,101315.91
2022-09-24T11:04:23.769Z,101315.81
2022-09-24T11:07:15.081Z,101317.47
2022-09-24T11:09:52.975Z,101320.06
2022-09-24T11:12:35.441Z,101314.75
2022-09-24T11:15:26.733Z,101333.19
2022-09-24T11:18:11.096Z,101325.16
2022-09-24T11:20:42.545Z,101337.47
2022-09-24T11:23:42.098Z,101331.28
2022-09-24T11:26:20.597Z,101338.28
2022-09-24T11:29:20.605Z,101336.50
2022-09-24T11:32:06.571Z,101332.03
2022-09-24T11:34:53.452Z,101333.81
2022-09-24T11:37:38.045Z,101342.63
2022-09-24T11:40:30.477Z,101339.97
2022-09-24T11:43:16.779Z,101338.22
2022-09-24T11:45:56.886Z,101344.34
2022-09-24T11:48:47.378Z,101350.59
2022-09-24T11:51:29.505Z,101347.00
2022-09-24T11:54:05.383Z,101354.97
2022-09-24T11:56:38.436Z,101352.28
2022-09-24T11:59:19.205Z,101361.94
2022-09-24T12:01:55.264Z,101357.47
2022-09-24T12:04:33.922Z,101352.13
2022-09-24T12:07:12.932Z,101344.94
2022-09-24T12:09:47.390Z,101354.72
2022-09-24T12:12:21.635Z,101350.22
2022-09-24T12:14:57.391Z,101344.81
2022-09-24T12:17:31.535Z,101347.31
2022-09-24T12:20:08.138Z,101349.00
2022-09-24T12:22:41.078Z,101352.53
2022-09-24T12:25:15.152Z,101349.88
2022-09-24T12:27:46.564Z,101366.66
2022-09-24T12:30:47.882Z,101356.88
2022-09-24T12:33:26.397Z,101360.34
2022-09-24T12:36:08.447Z,101364.84
2022-09-24T12:38:42.626Z,101359.53
2022-09-24T12:41:32.622Z,101367.53
2022-09-24T12:44:09.084Z,101372.84
2022-09-24T12:46:43.967Z,101367.56
2022-09-24T12:49:30.410Z,101372.84
2022-09-24T12:52:05.509Z,101369.44
2022-09-24T12:54:37.450Z,101362.38
2022-09-24T12:57:10.324Z,101377.50
2022-09-24T12:59:54.160Z,101373.16
2022-09-24T13:02:26.547Z,101372.25
2022-09-24T13:05:19.953Z,101375.03
2022-09-24T13:08:02.332Z,101387.50
2022-09-24T13:10:34.694Z,101381.31
2022-09-24T13:13:05.573Z,101375.25
2022-09-24T13:15:38.871Z,101379.75
2022-09-24T13:18:24.374Z,101395.72
2022-09-24T13:21:03.773Z,101384.09
2022-09-24T13:23:52.008Z,101379.50
2022-09-24T13:26:33.946Z,101385.44
2022-09-24T13:29:05.910Z,101382.66
2022-09-24T13:31:47.727Z,101390.56
2022-09-24T13:34:24.639Z,101380.72
2022-09-24T13:37:00.913Z,101390.38
2022-09-24T13:39:40.242Z,101393.91
2022-09-24T13:42:20.145Z,101383.34
2022-09-24T13:44:53.520Z,101384.25
2022-09-24T13:47:32.101Z,101388.75
2022-09-24T13:50:10.168Z,101392.25
2022-09-24T13:52:45.653Z,101389.59
2022-09-24T13:55:22.152Z,101389.59
2022-09-24T13:57:52.235Z,101383.53
2022-09-24T14:00:24.546Z,101388.03
2022-09-24T14:03:04.243Z,101389.88
2022-09-24T14:05:38.585Z,101383.75
2022-09-24T14:08:10.667Z,101389.97
2022-09-24T14:10:43.208Z,101385.56
2022-09-24T14:13:21.699Z,101377.63
2022-09-24T14:15:58.863Z,101381.19
2022-09-24T14:18:30.099Z,101386.41
2022-09-24T14:21:05.084Z,101381.09
2022-09-24T14:23:40.951Z,101391.75
2022-09-24T14:26:23.690Z,101390.84
2022-09-24T14:28:53.856Z,101388.16
2022-09-24T14:31:23.620Z,101388.97
2022-09-24T14:33:53.685Z,101393.38
2022-09-24T14:36:29.332Z,101395.16
2022-09-24T14:39:04.730Z,101390.72
2022-09-24T14:41:39.415Z,101396.03
2022-09-24T14:44:15.341Z,101395.16
2022-09-24T14:46:51.607Z,101393.50
2022-09-24T14:49:24.644Z,101391.88
2022-09-24T14:51:56.259Z,101396.34
2022-09-24T14:54:36.882Z,101398.22
2022-09-24T14:57:27.908Z,101396.50
2022-09-24T14:59:57.634Z,101393.94
2022-09-24T15:02:33.150Z,101395.75
2022-09-24T15:05:06.729Z,101398.50
2022-09-24T15:07:39.968Z,101396.88
2022-09-24T15:10:10.317Z,101396.94
2022-09-24T15:12:45.769Z,101392.69
2022-09-24T15:15:30.821Z,101389.22
2022-09-24T15:18:00.807Z,101399.06
2022-09-24T15:20:30.542Z,101391.19
2022-09-24T15:23:00.274Z,101394.78
2022-09-24T15:25:29.981Z,101382.41
2022-09-24T15:28:02.460Z,101388.66
2022-09-24T15:30:32.161Z,101393.91
2022-09-24T15:33:01.933Z,101392.03
2022-09-24T15:35:31.970Z,101390.16
2022-09-24T15:38:01.734Z,101395.31
2022-09-24T15:40:33.985Z,101398.81
2022-09-24T15:43:06.427Z,101394.44
2022-09-24T15:45:36.143Z,101399.75
2022-09-24T15:48:07.374Z,101399.69
2022-09-24T15:50:37.154Z,101405.88
2022-09-24T15:53:06.893Z,101395.22
2022-09-24T15:55:39.254Z,101411.13
2022-09-24T15:58:19.391Z,101400.44
2022-09-24T16:00:49.468Z,101398.50
2022-09-24T16:03:22.148Z,101405.53
2022-09-24T16:05:52.055Z,101397.47
2022-09-24T16:08:21.888Z,101404.41
2022-09-24T16:10:52.546Z,101404.34
2022-09-24T16:13:26.414Z,101400.81
2022-09-24T16:15:56.238Z,101406.88
2022-09-24T16:18:26.255Z,101405.09
2022-09-24T16:20:56.377Z,101411.25
2022-09-24T16:23:26.073Z,101420.94
2022-09-24T16:26:00.339Z,101420.94
2022-09-24T16:28:33.578Z,101413.81
2022-09-24T16:31:08.155Z,101415.59
2022-09-24T16:33:40.834Z,101422.59
2022-09-24T16:36:11.634Z,101416.34
2022-09-24T16:38:42.336Z,101426.06
2022-09-24T16:41:12.451Z,101423.34
2022-09-24T16:43:44.948Z,101427.69
2022-09-24T16:46:20.629Z,101429.41
2022-09-24T16:48:51.958Z,101427.63
2022-09-24T16:51:22.298Z,101434.63
2022-09-24T16:53:56.090Z,101433.69
2022-09-24T16:56:26.009Z,101437.97
2022-09-24T16:58:59.578Z,101433.44
2022-09-24T17:01:29.740Z,101444.78
2022-09-24T17:04:00.866Z,101442.94
2022-09-24T17:06:32.208Z,101446.38
2022-09-24T17:09:14.368Z,101445.47
2022-09-24T17:11:46.844Z,101449.81
2022-09-24T17:14:20.633Z,101445.31
2022-09-24T17:16:50.350Z,101454.03
2022-09-24T17:19:20.082Z,101449.53
2022-09-24T17:21:50.398Z,101455.50
2022-09-24T17:24:21.941Z,101452.72
2022-09-24T17:26:54.195Z,101456.19
2022-09-24T17:29:31.228Z,101449.09
2022-09-24T17:32:01.301Z,101462.28
2022-09-24T17:34:31.077Z,101456.06
2022-09-24T17:37:00.757Z,101463.91
2022-09-24T17:39:30.966Z,101468.22
2022-09-24T17:42:00.996Z,101467.25
2022-09-24T17:44:33.361Z,101469.88
2022-09-24T17:47:03.098Z,101465.44
2022-09-24T17:49:33.146Z,101472.47
2022-09-24T17:52:03.748Z,101472.38
2022-09-24T17:54:33.422Z,101475.84
2022-09-24T17:57:03.314Z,101475.78
2022-09-24T17:59:35.616Z,101472.22
2022-09-24T18:02:06.880Z,101466.94
2022-09-24T18:04:38.453Z,101472.22
2022-09-24T18:07:08.217Z,101476.66
2022-09-24T18:09:37.889Z,101483.72
2022-09-24T18:12:08.008Z,101487.31
2022-09-24T18:14:40.589Z,101483.84
2022-09-24T18:17:10.319Z,101482.91
2022-09-24T18:19:39.988Z,101487.22
2022-09-24T18:22:11.392Z,101494.31
2022-09-24T18:24:42.117Z,101493.38
2022-09-24T18:27:15.408Z,101500.41
2022-09-24T18:29:47.697Z,101503.03
2022-09-24T18:32:19.508Z,101499.47
2022-09-24T18:34:49.167Z,101504.72
2022-09-24T18:37:18.844Z,101501.22
2022-09-24T18:39:48.620Z,101507.38
2022-09-24T18:42:18.451Z,101510.00
2022-09-24T18:44:50.925Z,101509.19
2022-09-24T18:47:20.844Z,101514.41
2022-09-24T18:49:50.561Z,101511.72
2022-09-24T18:52:20.253Z,101510.72
2022-09-24T18:54:50.330Z,101517.72
2022-09-24T18:57:20.074Z,101505.31
2022-09-24T18:59:52.508Z,101511.41
2022-09-24T19:02:25.351Z,101513.16
2022-09-24T19:04:55.262Z,101512.28
2022-09-24T19:07:24.970Z,101513.97
2022-09-24T19:09:54.658Z,101517.47
2022-09-24T19:12:26.169Z,101519.25
2022-09-24T19:15:00.493Z,101523.75
2022-09-24T19:17:30.171Z,101514.91
2022-09-24T19:19:59.872Z,101519.34
2022-09-24T19:22:29.556Z,101516.63
2022-09-24T19:24:59.213Z,101529.84
2022-09-24T19:27:29.155Z,101528.09
2022-09-24T19:30:01.437Z,101528.16
2022-09-24T19:32:32.017Z,101527.28
2022-09-24T19:35:01.709Z,101529.91
2022-09-24T19:37:31.392Z,101534.31
2022-09-24T19:40:01.270Z,101528.09
2022-09-24T19:42:30.925Z,101528.09
2022-09-24T19:45:04.319Z,101529.84
2022-09-24T19:47:34.581Z,101533.34
2022-09-24T19:50:04.271Z,101529.75
2022-09-24T19:52:33.982Z,101527.09
2022-09-24T19:55:03.702Z,101524.47
2022-09-24T19:57:35.150Z,101518.28
2022-09-24T20:00:08.925Z,101520.94
2022-09-24T20:02:38.763Z,101523.56
2022-09-24T20:05:09.879Z,101518.22
2022-09-24T20:07:39.587Z,101520.84
2022-09-24T20:10:11.229Z,101522.56
2022-09-24T20:12:42.913Z,101524.31
2022-09-24T20:15:15.462Z,101517.19
2022-09-24T20:17:45.150Z,101515.34
2022-09-24T20:20:14.929Z,101512.69
2022-09-24T20:22:44.679Z,101514.44
2022-09-24T20:25:14.649Z,101511.81
2022-09-24T20:27:55.480Z,101513.56
2022-09-24T20:30:27.782Z,101511.75
2022-09-24T20:32:57.497Z,101511.75
2022-09-24T20:35:27.216Z,101512.66
2022-09-24T20:37:57.174Z,101513.50
2022-09-24T20:40:26.940Z,101510.84
2022-09-24T20:42:56.724Z,101521.44
2022-09-24T20:45:29.109Z,101517.16
2022-09-24T20:47:58.797Z,101516.34
2022-09-24T20:50:28.653Z,101511.97
2022-09-24T20:52:58.618Z,101511.16
2022-09-24T20:55:28.484Z,101512.94
2022-09-24T20:57:58.167Z,101521.72
2022-09-24T21:00:35.769Z,101510.22
2022-09-24T21:03:25.661Z,101513.72
2022-09-24T21:05:56.019Z,101510.16
2022-09-24T21:08:25.706Z,101519.00
2022-09-24T21:11:02.600Z,101520.78
2022-09-24T21:13:33.237Z,101526.00
2022-09-24T21:16:06.409Z,101518.06
2022-09-24T21:18:40.409Z,101518.88
2022-09-24T21:21:12.146Z,101524.16
2022-09-24T21:23:42.158Z,101525.91
2022-09-24T21:26:13.367Z,101527.66
2022-09-24T21:28:43.560Z,101527.75
2022-09-24T21:31:16.443Z,101537.38
2022-09-24T21:33:48.777Z,101524.13
2022-09-24T21:36:19.837Z,101529.38
2022-09-24T21:38:56.248Z,101542.66
2022-09-24T21:41:27.146Z,101536.41
2022-09-24T21:43:56.999Z,101540.81
2022-09-24T21:46:31.481Z,101542.56
2022-09-24T21:49:02.309Z,101542.50
2022-09-24T21:51:32.751Z,101539.84
2022-09-24T21:54:04.529Z,101536.34
2022-09-24T21:56:36.175Z,101536.31
2022-09-24T21:59:28.113Z,101539.78
2022-09-24T22:02:00.504Z,101540.66
2022-09-24T22:04:33.466Z,101539.69
2022-09-24T22:07:03.469Z,101537.00
2022-09-24T22:09:33.747Z,101531.63
2022-09-24T22:12:05.017Z,101534.25
2022-09-24T22:14:35.327Z,101527.19
2022-09-24T22:17:07.674Z,101531.59
2022-09-24T22:19:37.718Z,101529.84
2022-09-24T22:22:07.458Z,101523.75
2022-09-24T22:24:37.159Z,101524.63
2022-09-24T22:27:07.384Z,101522.84
2022-09-24T22:29:37.122Z,101520.22
2022-09-24T22:32:09.541Z,101518.47
2022-09-24T22:34:51.677Z,101521.03
2022-09-24T22:37:22.277Z,101516.63
2022-09-24T22:39:51.936Z,101511.25
2022-09-24T22:42:21.730Z,101515.56
2022-09-24T22:44:51.970Z,101511.97
2022-09-24T22:47:24.285Z,101514.63
2022-09-24T22:49:53.940Z,101517.19
2022-09-24T22:52:23.631Z,101513.66
2022-09-24T22:54:53.310Z,101519.97
2022-09-24T22:57:23.002Z,101519.03
2022-09-24T22:59:52.701Z,101521.69
2022-09-24T23:02:25.041Z,101519.97
2022-09-24T23:04:55.405Z,101520.00
2022-09-24T23:07:25.740Z,101520.91
2022-09-24T23:09:55.818Z,101520.06
2022-09-24T23:12:25.539Z,101515.66
2022-09-24T23:14:55.785Z,101522.72
2022-09-24T23:17:28.229Z,101517.44
2022-09-24T23:19:58.047Z,101515.66
2022-09-24T23:22:27.721Z,101523.59
2022-09-24T23:24:57.768Z,101525.34
2022-09-24T23:27:27.798Z,101520.00
2022-09-24T23:29:57.489Z,101518.22
2022-09-24T23:32:31.453Z,101521.75
2022-09-24T23:35:02.013Z,101523.44
2022-09-24T23:37:31.849Z,101517.34
2022-09-24T23:40:01.657Z,101522.63
2022-09-24T23:42:31.498Z,101527.94
2022-09-24T23:45:01.236Z,101515.50
2022-09-24T23:47:36.153Z,101520.88
2022-09-24T23:50:06.527Z,101524.25
2022-09-24T23:52:36.262Z,101523.34
2022-09-24T23:55:06.075Z,101529.53
2022-09-24T23:57:35.894Z,101521.59
